sensor_id;sensor_type;location;lat;lon;timestamp;P1;durP1;ratioP1;P2;durP2;ratioP2
58196;SDS011;43999;51.660;5.616;2023-02-14T00:00:03;33.63;;;26.25;;
58196;SDS011;43999;51.660;5.616;2023-02-14T00:02:33;29.05;;;24.23;;
58196;SDS011;43999;51.660;5.616;2023-02-14T00:05:01;31.85;;;24.17;;
58196;SDS011;43999;51.660;5.616;2023-02-14T00:07:29;31.13;;;25.90;;
58196;SDS011;43999;51.660;5.616;2023-02-14T00:09:57;36.80;;;28.05;;
58196;SDS011;43999;51.660;5.616;2023-02-14T00:12:26;39.35;;;26.83;;
58196;SDS011;43999;51.660;5.616;2023-02-14T00:14:53;30.52;;;24.75;;
58196;SDS011;43999;51.660;5.616;2023-02-14T00:17:39;34.65;;;24.30;;
58196;SDS011;43999;51.660;5.616;2023-02-14T00:20:09;29.70;;;23.55;;
58196;SDS011;43999;51.660;5.616;2023-02-14T00:22:39;28.13;;;24.58;;
58196;SDS011;43999;51.660;5.616;2023-02-14T00:25:07;28.40;;;24.88;;
58196;SDS011;43999;51.660;5.616;2023-02-14T00:27:36;29.02;;;24.60;;
58196;SDS011;43999;51.660;5.616;2023-02-14T00:30:05;29.55;;;23.05;;
58196;SDS011;43999;51.660;5.616;2023-02-14T00:32:37;26.33;;;23.70;;
58196;SDS011;43999;51.660;5.616;2023-02-14T00:35:07;28.23;;;23.55;;
58196;SDS011;43999;51.660;5.616;2023-02-14T00:37:39;33.92;;;25.58;;
58196;SDS011;43999;51.660;5.616;2023-02-14T00:40:08;34.40;;;25.30;;
58196;SDS011;43999;51.660;5.616;2023-02-14T00:42:39;32.92;;;25.33;;
58196;SDS011;43999;51.660;5.616;2023-02-14T00:45:06;32.53;;;25.08;;
58196;SDS011;43999;51.660;5.616;2023-02-14T00:47:36;26.42;;;23.45;;
58196;SDS011;43999;51.660;5.616;2023-02-14T00:50:07;27.08;;;22.63;;
58196;SDS011;43999;51.660;5.616;2023-02-14T00:52:36;29.45;;;23.67;;
58196;SDS011;43999;51.660;5.616;2023-02-14T00:55:05;26.02;;;21.17;;
58196;SDS011;43999;51.660;5.616;2023-02-14T00:57:40;31.33;;;23.25;;
58196;SDS011;43999;51.660;5.616;2023-02-14T01:00:07;28.85;;;21.77;;
58196;SDS011;43999;51.660;5.616;2023-02-14T01:02:36;29.50;;;22.38;;
58196;SDS011;43999;51.660;5.616;2023-02-14T01:05:06;32.33;;;23.45;;
58196;SDS011;43999;51.660;5.616;2023-02-14T01:07:34;30.88;;;23.67;;
58196;SDS011;43999;51.660;5.616;2023-02-14T01:10:02;24.90;;;22.10;;
58196;SDS011;43999;51.660;5.616;2023-02-14T01:12:30;27.45;;;21.63;;
58196;SDS011;43999;51.660;5.616;2023-02-14T01:14:59;29.35;;;22.33;;
58196;SDS011;43999;51.660;5.616;2023-02-14T01:17:28;25.45;;;22.40;;
58196;SDS011;43999;51.660;5.616;2023-02-14T01:19:56;25.77;;;22.75;;
58196;SDS011;43999;51.660;5.616;2023-02-14T01:22:23;30.17;;;24.10;;
58196;SDS011;43999;51.660;5.616;2023-02-14T01:24:58;31.10;;;23.02;;
58196;SDS011;43999;51.660;5.616;2023-02-14T01:27:32;29.02;;;23.10;;
58196;SDS011;43999;51.660;5.616;2023-02-14T01:30:00;26.85;;;21.92;;
58196;SDS011;43999;51.660;5.616;2023-02-14T01:32:31;26.52;;;22.45;;
58196;SDS011;43999;51.660;5.616;2023-02-14T01:34:59;28.27;;;22.25;;
58196;SDS011;43999;51.660;5.616;2023-02-14T01:37:28;28.27;;;22.40;;
58196;SDS011;43999;51.660;5.616;2023-02-14T01:39:56;28.48;;;22.23;;
58196;SDS011;43999;51.660;5.616;2023-02-14T01:42:27;28.52;;;23.67;;
58196;SDS011;43999;51.660;5.616;2023-02-14T01:45:03;24.50;;;21.35;;
58196;SDS011;43999;51.660;5.616;2023-02-14T01:47:51;25.98;;;22.52;;
58196;SDS011;43999;51.660;5.616;2023-02-14T01:50:31;22.50;;;16.65;;
58196;SDS011;43999;51.660;5.616;2023-02-14T01:53:07;27.00;;;20.95;;
58196;SDS011;43999;51.660;5.616;2023-02-14T01:55:52;25.55;;;20.60;;
58196;SDS011;43999;51.660;5.616;2023-02-14T01:58:33;31.30;;;22.95;;
58196;SDS011;43999;51.660;5.616;2023-02-14T02:01:15;33.60;;;24.60;;
58196;SDS011;43999;51.660;5.616;2023-02-14T02:03:52;28.85;;;24.13;;
58196;SDS011;43999;51.660;5.616;2023-02-14T02:06:30;33.13;;;24.50;;
58196;SDS011;43999;51.660;5.616;2023-02-14T02:11:50;27.38;;;22.40;;
58196;SDS011;43999;51.660;5.616;2023-02-14T02:14:20;26.80;;;22.00;;
58196;SDS011;43999;51.660;5.616;2023-02-14T02:29:59;30.00;;;24.55;;
58196;SDS011;43999;51.660;5.616;2023-02-14T02:36:54;28.80;;;24.48;;
58196;SDS011;43999;51.660;5.616;2023-02-14T02:43:00;28.90;;;23.13;;
58196;SDS011;43999;51.660;5.616;2023-02-14T02:56:31;30.42;;;23.98;;
58196;SDS011;43999;51.660;5.616;2023-02-14T03:02:14;28.00;;;22.85;;
58196;SDS011;43999;51.660;5.616;2023-02-14T03:04:51;29.08;;;24.95;;
58196;SDS011;43999;51.660;5.616;2023-02-14T03:19:21;32.58;;;24.52;;
58196;SDS011;43999;51.660;5.616;2023-02-14T03:25:27;37.15;;;26.50;;
58196;SDS011;43999;51.660;5.616;2023-02-14T03:28:36;34.25;;;27.65;;
58196;SDS011;43999;51.660;5.616;2023-02-14T03:40:29;34.40;;;26.25;;
58196;SDS011;43999;51.660;5.616;2023-02-14T03:43:16;38.67;;;29.15;;
58196;SDS011;43999;51.660;5.616;2023-02-14T03:49:00;37.80;;;29.10;;
58196;SDS011;43999;51.660;5.616;2023-02-14T03:51:37;31.42;;;28.00;;
58196;SDS011;43999;51.660;5.616;2023-02-14T03:54:08;38.17;;;29.95;;
58196;SDS011;43999;51.660;5.616;2023-02-14T03:56:49;39.45;;;30.08;;
58196;SDS011;43999;51.660;5.616;2023-02-14T03:59:47;38.10;;;28.05;;
58196;SDS011;43999;51.660;5.616;2023-02-14T04:02:19;31.55;;;25.83;;
58196;SDS011;43999;51.660;5.616;2023-02-14T04:05:04;38.33;;;30.00;;
58196;SDS011;43999;51.660;5.616;2023-02-14T04:07:56;38.90;;;28.38;;
58196;SDS011;43999;51.660;5.616;2023-02-14T04:10:26;39.40;;;27.80;;
58196;SDS011;43999;51.660;5.616;2023-02-14T04:12:54;35.00;;;28.77;;
58196;SDS011;43999;51.660;5.616;2023-02-14T04:15:22;32.20;;;26.10;;
58196;SDS011;43999;51.660;5.616;2023-02-14T04:17:52;37.05;;;28.23;;
58196;SDS011;43999;51.660;5.616;2023-02-14T04:20:38;33.85;;;28.25;;
58196;SDS011;43999;51.660;5.616;2023-02-14T04:23:05;33.67;;;28.08;;
58196;SDS011;43999;51.660;5.616;2023-02-14T04:25:34;35.97;;;27.90;;
58196;SDS011;43999;51.660;5.616;2023-02-14T04:28:06;35.92;;;27.10;;
58196;SDS011;43999;51.660;5.616;2023-02-14T04:30:33;35.53;;;26.27;;
58196;SDS011;43999;51.660;5.616;2023-02-14T04:33:06;31.05;;;26.13;;
58196;SDS011;43999;51.660;5.616;2023-02-14T04:35:36;34.42;;;27.67;;
58196;SDS011;43999;51.660;5.616;2023-02-14T04:38:13;28.03;;;21.97;;
58196;SDS011;43999;51.660;5.616;2023-02-14T04:40:40;35.05;;;27.17;;
58196;SDS011;43999;51.660;5.616;2023-02-14T04:43:08;36.38;;;26.25;;
58196;SDS011;43999;51.660;5.616;2023-02-14T04:45:45;35.03;;;26.27;;
58196;SDS011;43999;51.660;5.616;2023-02-14T04:48:14;32.00;;;25.33;;
58196;SDS011;43999;51.660;5.616;2023-02-14T04:50:42;30.15;;;26.85;;
58196;SDS011;43999;51.660;5.616;2023-02-14T04:53:11;35.40;;;27.13;;
58196;SDS011;43999;51.660;5.616;2023-02-14T04:55:40;32.65;;;28.17;;
58196;SDS011;43999;51.660;5.616;2023-02-14T04:58:07;30.90;;;25.13;;
58196;SDS011;43999;51.660;5.616;2023-02-14T05:00:35;32.53;;;24.98;;
58196;SDS011;43999;51.660;5.616;2023-02-14T05:03:02;38.78;;;29.05;;
58196;SDS011;43999;51.660;5.616;2023-02-14T05:05:31;31.65;;;26.38;;
58196;SDS011;43999;51.660;5.616;2023-02-14T05:07:59;34.08;;;29.80;;
58196;SDS011;43999;51.660;5.616;2023-02-14T05:10:27;33.40;;;28.63;;
58196;SDS011;43999;51.660;5.616;2023-02-14T05:12:56;34.47;;;29.13;;
58196;SDS011;43999;51.660;5.616;2023-02-14T05:15:24;31.92;;;25.92;;
58196;SDS011;43999;51.660;5.616;2023-02-14T05:17:52;31.17;;;25.63;;
58196;SDS011;43999;51.660;5.616;2023-02-14T05:20:21;31.55;;;25.20;;
58196;SDS011;43999;51.660;5.616;2023-02-14T05:22:50;34.20;;;26.15;;
58196;SDS011;43999;51.660;5.616;2023-02-14T05:25:21;31.55;;;26.17;;
58196;SDS011;43999;51.660;5.616;2023-02-14T05:27:49;29.88;;;24.30;;
58196;SDS011;43999;51.660;5.616;2023-02-14T05:30:17;31.13;;;25.02;;
58196;SDS011;43999;51.660;5.616;2023-02-14T05:32:48;30.73;;;24.55;;
58196;SDS011;43999;51.660;5.616;2023-02-14T05:35:15;32.47;;;26.30;;
58196;SDS011;43999;51.660;5.616;2023-02-14T05:37:43;32.35;;;28.40;;
58196;SDS011;43999;51.660;5.616;2023-02-14T05:40:13;31.15;;;24.27;;
58196;SDS011;43999;51.660;5.616;2023-02-14T05:42:44;34.17;;;25.65;;
58196;SDS011;43999;51.660;5.616;2023-02-14T05:45:12;28.90;;;25.83;;
58196;SDS011;43999;51.660;5.616;2023-02-14T05:47:42;36.15;;;28.40;;
58196;SDS011;43999;51.660;5.616;2023-02-14T05:50:12;30.35;;;25.25;;
58196;SDS011;43999;51.660;5.616;2023-02-14T05:52:42;32.30;;;25.52;;
58196;SDS011;43999;51.660;5.616;2023-02-14T05:55:15;32.92;;;24.35;;
58196;SDS011;43999;51.660;5.616;2023-02-14T05:57:44;30.58;;;24.67;;
58196;SDS011;43999;51.660;5.616;2023-02-14T06:00:13;27.08;;;24.20;;
58196;SDS011;43999;51.660;5.616;2023-02-14T06:02:44;35.90;;;27.73;;
58196;SDS011;43999;51.660;5.616;2023-02-14T06:05:17;32.10;;;26.27;;
58196;SDS011;43999;51.660;5.616;2023-02-14T06:07:54;28.63;;;23.63;;
58196;SDS011;43999;51.660;5.616;2023-02-14T06:10:30;27.65;;;24.27;;
58196;SDS011;43999;51.660;5.616;2023-02-14T06:13:01;31.90;;;26.05;;
58196;SDS011;43999;51.660;5.616;2023-02-14T06:15:46;31.13;;;24.90;;
58196;SDS011;43999;51.660;5.616;2023-02-14T06:18:14;27.77;;;23.58;;
58196;SDS011;43999;51.660;5.616;2023-02-14T06:20:42;28.15;;;23.25;;
58196;SDS011;43999;51.660;5.616;2023-02-14T06:23:12;29.58;;;24.98;;
58196;SDS011;43999;51.660;5.616;2023-02-14T06:25:40;29.42;;;23.77;;
58196;SDS011;43999;51.660;5.616;2023-02-14T06:28:08;32.40;;;26.83;;
58196;SDS011;43999;51.660;5.616;2023-02-14T06:30:36;29.10;;;25.55;;
58196;SDS011;43999;51.660;5.616;2023-02-14T06:33:04;34.63;;;25.20;;
58196;SDS011;43999;51.660;5.616;2023-02-14T06:35:36;35.65;;;25.88;;
58196;SDS011;43999;51.660;5.616;2023-02-14T06:38:03;27.63;;;23.85;;
58196;SDS011;43999;51.660;5.616;2023-02-14T06:41:08;32.42;;;25.63;;
58196;SDS011;43999;51.660;5.616;2023-02-14T06:43:37;31.20;;;23.38;;
58196;SDS011;43999;51.660;5.616;2023-02-14T06:46:07;31.83;;;25.92;;
58196;SDS011;43999;51.660;5.616;2023-02-14T06:48:36;30.90;;;25.75;;
58196;SDS011;43999;51.660;5.616;2023-02-14T06:51:14;30.77;;;23.58;;
58196;SDS011;43999;51.660;5.616;2023-02-14T06:53:44;28.45;;;22.92;;
58196;SDS011;43999;51.660;5.616;2023-02-14T06:56:12;28.85;;;24.25;;
58196;SDS011;43999;51.660;5.616;2023-02-14T06:58:44;32.53;;;26.77;;
58196;SDS011;43999;51.660;5.616;2023-02-14T07:01:12;28.80;;;23.20;;
58196;SDS011;43999;51.660;5.616;2023-02-14T07:03:43;31.17;;;23.85;;
58196;SDS011;43999;51.660;5.616;2023-02-14T07:06:19;29.60;;;23.50;;
58196;SDS011;43999;51.660;5.616;2023-02-14T07:08:48;29.85;;;22.70;;
58196;SDS011;43999;51.660;5.616;2023-02-14T07:11:17;26.27;;;22.75;;
58196;SDS011;43999;51.660;5.616;2023-02-14T07:13:46;27.25;;;22.13;;
58196;SDS011;43999;51.660;5.616;2023-02-14T07:16:17;27.33;;;22.85;;
58196;SDS011;43999;51.660;5.616;2023-02-14T07:19:04;25.60;;;20.92;;
58196;SDS011;43999;51.660;5.616;2023-02-14T07:21:37;29.23;;;21.95;;
58196;SDS011;43999;51.660;5.616;2023-02-14T07:24:06;32.00;;;22.42;;
58196;SDS011;43999;51.660;5.616;2023-02-14T07:26:34;27.42;;;20.92;;
58196;SDS011;43999;51.660;5.616;2023-02-14T07:29:03;26.15;;;21.02;;
58196;SDS011;43999;51.660;5.616;2023-02-14T07:31:36;28.30;;;23.05;;
58196;SDS011;43999;51.660;5.616;2023-02-14T07:34:10;24.92;;;22.38;;
58196;SDS011;43999;51.660;5.616;2023-02-14T07:36:40;29.02;;;21.98;;
58196;SDS011;43999;51.660;5.616;2023-02-14T07:39:10;25.88;;;22.45;;
58196;SDS011;43999;51.660;5.616;2023-02-14T07:41:40;28.70;;;21.58;;
58196;SDS011;43999;51.660;5.616;2023-02-14T07:44:12;29.38;;;24.70;;
58196;SDS011;43999;51.660;5.616;2023-02-14T07:46:40;27.15;;;21.40;;
58196;SDS011;43999;51.660;5.616;2023-02-14T07:49:09;28.52;;;21.75;;
58196;SDS011;43999;51.660;5.616;2023-02-14T07:51:40;26.45;;;20.33;;
58196;SDS011;43999;51.660;5.616;2023-02-14T07:54:15;32.03;;;22.05;;
58196;SDS011;43999;51.660;5.616;2023-02-14T07:56:45;27.73;;;22.30;;
58196;SDS011;43999;51.660;5.616;2023-02-14T07:59:16;25.88;;;22.63;;
58196;SDS011;43999;51.660;5.616;2023-02-14T08:01:46;23.10;;;20.55;;
58196;SDS011;43999;51.660;5.616;2023-02-14T08:04:25;26.73;;;21.38;;
58196;SDS011;43999;51.660;5.616;2023-02-14T08:06:57;28.90;;;21.13;;
58196;SDS011;43999;51.660;5.616;2023-02-14T08:09:35;27.77;;;22.35;;
58196;SDS011;43999;51.660;5.616;2023-02-14T08:12:03;25.00;;;20.85;;
58196;SDS011;43999;51.660;5.616;2023-02-14T08:14:51;25.42;;;19.85;;
58196;SDS011;43999;51.660;5.616;2023-02-14T08:17:18;25.27;;;20.83;;
58196;SDS011;43999;51.660;5.616;2023-02-14T08:19:47;24.50;;;21.85;;
58196;SDS011;43999;51.660;5.616;2023-02-14T08:22:23;44.65;;;21.40;;
58196;SDS011;43999;51.660;5.616;2023-02-14T08:24:52;26.27;;;20.65;;
58196;SDS011;43999;51.660;5.616;2023-02-14T08:27:20;25.77;;;21.63;;
58196;SDS011;43999;51.660;5.616;2023-02-14T08:29:49;23.50;;;20.58;;
58196;SDS011;43999;51.660;5.616;2023-02-14T08:32:16;23.20;;;20.73;;
58196;SDS011;43999;51.660;5.616;2023-02-14T08:34:50;31.95;;;25.17;;
58196;SDS011;43999;51.660;5.616;2023-02-14T08:37:21;24.48;;;21.83;;
58196;SDS011;43999;51.660;5.616;2023-02-14T08:39:57;24.38;;;21.52;;
58196;SDS011;43999;51.660;5.616;2023-02-14T08:42:25;25.63;;;22.70;;
58196;SDS011;43999;51.660;5.616;2023-02-14T08:44:55;23.88;;;21.13;;
58196;SDS011;43999;51.660;5.616;2023-02-14T08:47:25;26.55;;;22.00;;
58196;SDS011;43999;51.660;5.616;2023-02-14T08:50:04;30.02;;;24.88;;
58196;SDS011;43999;51.660;5.616;2023-02-14T08:52:40;23.50;;;21.00;;
58196;SDS011;43999;51.660;5.616;2023-02-14T08:55:11;25.60;;;22.15;;
58196;SDS011;43999;51.660;5.616;2023-02-14T08:57:39;24.35;;;21.75;;
58196;SDS011;43999;51.660;5.616;2023-02-14T09:00:08;26.67;;;23.65;;
58196;SDS011;43999;51.660;5.616;2023-02-14T09:02:36;29.05;;;24.45;;
58196;SDS011;43999;51.660;5.616;2023-02-14T09:05:05;33.95;;;24.80;;
58196;SDS011;43999;51.660;5.616;2023-02-14T09:07:49;28.63;;;23.25;;
58196;SDS011;43999;51.660;5.616;2023-02-14T09:10:17;29.75;;;24.83;;
58196;SDS011;43999;51.660;5.616;2023-02-14T09:12:54;30.58;;;26.52;;
58196;SDS011;43999;51.660;5.616;2023-02-14T09:15:31;25.73;;;22.77;;
58196;SDS011;43999;51.660;5.616;2023-02-14T09:18:01;32.08;;;23.67;;
58196;SDS011;43999;51.660;5.616;2023-02-14T09:20:29;27.27;;;24.33;;
58196;SDS011;43999;51.660;5.616;2023-02-14T09:23:03;29.63;;;26.33;;
58196;SDS011;43999;51.660;5.616;2023-02-14T09:25:36;28.23;;;24.63;;
58196;SDS011;43999;51.660;5.616;2023-02-14T09:28:04;27.60;;;24.10;;
58196;SDS011;43999;51.660;5.616;2023-02-14T09:30:34;32.65;;;24.58;;
58196;SDS011;43999;51.660;5.616;2023-02-14T09:33:18;32.38;;;23.83;;
58196;SDS011;43999;51.660;5.616;2023-02-14T09:35:48;28.00;;;23.58;;
58196;SDS011;43999;51.660;5.616;2023-02-14T09:38:36;28.20;;;25.05;;
58196;SDS011;43999;51.660;5.616;2023-02-14T09:41:07;30.40;;;24.50;;
58196;SDS011;43999;51.660;5.616;2023-02-14T09:43:59;30.10;;;23.15;;
58196;SDS011;43999;51.660;5.616;2023-02-14T09:46:54;25.73;;;22.50;;
58196;SDS011;43999;51.660;5.616;2023-02-14T09:49:33;27.52;;;23.10;;
58196;SDS011;43999;51.660;5.616;2023-02-14T09:52:11;31.52;;;23.33;;
58196;SDS011;43999;51.660;5.616;2023-02-14T09:54:56;26.48;;;22.67;;
58196;SDS011;43999;51.660;5.616;2023-02-14T09:57:40;24.60;;;21.80;;
58196;SDS011;43999;51.660;5.616;2023-02-14T10:00:36;29.52;;;22.85;;
58196;SDS011;43999;51.660;5.616;2023-02-14T10:03:17;26.38;;;23.50;;
58196;SDS011;43999;51.660;5.616;2023-02-14T10:06:28;28.55;;;24.48;;
58196;SDS011;43999;51.660;5.616;2023-02-14T10:09:43;27.02;;;22.70;;
58196;SDS011;43999;51.660;5.616;2023-02-14T10:13:20;26.52;;;23.10;;
58196;SDS011;43999;51.660;5.616;2023-02-14T10:16:47;27.60;;;24.55;;
58196;SDS011;43999;51.660;5.616;2023-02-14T10:19:49;23.80;;;21.05;;
58196;SDS011;43999;51.660;5.616;2023-02-14T10:22:58;26.10;;;22.08;;
58196;SDS011;43999;51.660;5.616;2023-02-14T10:26:17;27.67;;;24.15;;
58196;SDS011;43999;51.660;5.616;2023-02-14T10:29:13;28.30;;;21.77;;
58196;SDS011;43999;51.660;5.616;2023-02-14T10:46:50;22.80;;;20.38;;
58196;SDS011;43999;51.660;5.616;2023-02-14T10:50:15;21.17;;;19.00;;
58196;SDS011;43999;51.660;5.616;2023-02-14T11:02:31;22.73;;;19.25;;
58196;SDS011;43999;51.660;5.616;2023-02-14T11:05:30;20.13;;;18.20;;
58196;SDS011;43999;51.660;5.616;2023-02-14T11:08:25;20.13;;;18.05;;
58196;SDS011;43999;51.660;5.616;2023-02-14T11:14:18;22.15;;;19.75;;
58196;SDS011;43999;51.660;5.616;2023-02-14T11:17:28;20.20;;;18.15;;
58196;SDS011;43999;51.660;5.616;2023-02-14T11:22:45;20.55;;;18.35;;
58196;SDS011;43999;51.660;5.616;2023-02-14T11:25:36;21.08;;;18.95;;
58196;SDS011;43999;51.660;5.616;2023-02-14T11:28:05;18.85;;;17.23;;
58196;SDS011;43999;51.660;5.616;2023-02-14T11:30:51;21.30;;;19.00;;
58196;SDS011;43999;51.660;5.616;2023-02-14T11:33:38;20.58;;;18.38;;
58196;SDS011;43999;51.660;5.616;2023-02-14T11:36:11;24.50;;;22.00;;
58196;SDS011;43999;51.660;5.616;2023-02-14T11:38:44;18.92;;;16.95;;
58196;SDS011;43999;51.660;5.616;2023-02-14T11:41:20;21.17;;;18.30;;
58196;SDS011;43999;51.660;5.616;2023-02-14T11:44:05;21.58;;;18.80;;
58196;SDS011;43999;51.660;5.616;2023-02-14T11:46:51;20.60;;;18.60;;
58196;SDS011;43999;51.660;5.616;2023-02-14T11:49:59;19.77;;;17.92;;
58196;SDS011;43999;51.660;5.616;2023-02-14T11:52:52;23.63;;;18.17;;
58196;SDS011;43999;51.660;5.616;2023-02-14T11:55:33;20.05;;;18.25;;
58196;SDS011;43999;51.660;5.616;2023-02-14T11:58:04;19.55;;;17.70;;
58196;SDS011;43999;51.660;5.616;2023-02-14T12:00:54;18.38;;;16.55;;
58196;SDS011;43999;51.660;5.616;2023-02-14T12:03:23;22.35;;;18.25;;
58196;SDS011;43999;51.660;5.616;2023-02-14T12:06:02;20.30;;;18.20;;
58196;SDS011;43999;51.660;5.616;2023-02-14T12:11:58;19.67;;;17.17;;
58196;SDS011;43999;51.660;5.616;2023-02-14T12:14:34;21.60;;;19.58;;
58196;SDS011;43999;51.660;5.616;2023-02-14T12:17:28;19.13;;;17.33;;
58196;SDS011;43999;51.660;5.616;2023-02-14T12:22:51;19.50;;;17.63;;
58196;SDS011;43999;51.660;5.616;2023-02-14T12:25:43;20.10;;;18.00;;
58196;SDS011;43999;51.660;5.616;2023-02-14T12:28:29;19.15;;;17.20;;
58196;SDS011;43999;51.660;5.616;2023-02-14T12:31:14;19.33;;;17.43;;
58196;SDS011;43999;51.660;5.616;2023-02-14T12:33:54;20.17;;;18.10;;
58196;SDS011;43999;51.660;5.616;2023-02-14T12:39:28;21.02;;;18.95;;
58196;SDS011;43999;51.660;5.616;2023-02-14T12:42:42;19.45;;;17.55;;
58196;SDS011;43999;51.660;5.616;2023-02-14T13:08:49;17.77;;;15.68;;
58196;SDS011;43999;51.660;5.616;2023-02-14T13:17:50;18.08;;;16.25;;
58196;SDS011;43999;51.660;5.616;2023-02-14T13:21:00;20.25;;;18.15;;
58196;SDS011;43999;51.660;5.616;2023-02-14T13:23:41;21.08;;;19.00;;
58196;SDS011;43999;51.660;5.616;2023-02-14T13:26:35;19.95;;;18.05;;
58196;SDS011;43999;51.660;5.616;2023-02-14T13:29:21;20.40;;;18.37;;
58196;SDS011;43999;51.660;5.616;2023-02-14T13:32:09;20.30;;;18.15;;
58196;SDS011;43999;51.660;5.616;2023-02-14T13:34:49;18.15;;;16.40;;
58196;SDS011;43999;51.660;5.616;2023-02-14T13:37:36;21.77;;;17.00;;
58196;SDS011;43999;51.660;5.616;2023-02-14T13:40:15;20.10;;;18.08;;
58196;SDS011;43999;51.660;5.616;2023-02-14T13:43:01;20.10;;;18.15;;
58196;SDS011;43999;51.660;5.616;2023-02-14T13:48:32;21.60;;;19.40;;
58196;SDS011;43999;51.660;5.616;2023-02-14T13:51:08;20.75;;;18.58;;
58196;SDS011;43999;51.660;5.616;2023-02-14T13:53:42;20.92;;;18.83;;
58196;SDS011;43999;51.660;5.616;2023-02-14T13:59:22;22.50;;;20.13;;
58196;SDS011;43999;51.660;5.616;2023-02-14T14:04:58;21.50;;;19.30;;
58196;SDS011;43999;51.660;5.616;2023-02-14T14:07:31;22.73;;;20.13;;
58196;SDS011;43999;51.660;5.616;2023-02-14T14:10:03;22.17;;;20.00;;
58196;SDS011;43999;51.660;5.616;2023-02-14T14:12:47;22.55;;;20.23;;
58196;SDS011;43999;51.660;5.616;2023-02-14T14:15:18;22.98;;;20.67;;
58196;SDS011;43999;51.660;5.616;2023-02-14T14:20:44;23.30;;;21.00;;
58196;SDS011;43999;51.660;5.616;2023-02-14T14:23:25;23.83;;;21.42;;
58196;SDS011;43999;51.660;5.616;2023-02-14T14:29:26;20.45;;;18.40;;
58196;SDS011;43999;51.660;5.616;2023-02-14T14:32:08;23.15;;;20.85;;
58196;SDS011;43999;51.660;5.616;2023-02-14T14:35:16;22.45;;;20.30;;
58196;SDS011;43999;51.660;5.616;2023-02-14T14:37:52;22.95;;;20.48;;
58196;SDS011;43999;51.660;5.616;2023-02-14T14:40:28;21.20;;;19.00;;
58196;SDS011;43999;51.660;5.616;2023-02-14T14:46:06;20.73;;;18.52;;
58196;SDS011;43999;51.660;5.616;2023-02-14T14:48:47;22.20;;;19.83;;
58196;SDS011;43999;51.660;5.616;2023-02-14T14:51:43;22.35;;;19.98;;
58196;SDS011;43999;51.660;5.616;2023-02-14T14:56:54;24.45;;;21.88;;
58196;SDS011;43999;51.660;5.616;2023-02-14T14:59:31;22.95;;;20.75;;
58196;SDS011;43999;51.660;5.616;2023-02-14T15:02:19;24.48;;;22.13;;
58196;SDS011;43999;51.660;5.616;2023-02-14T15:05:09;22.98;;;20.65;;
58196;SDS011;43999;51.660;5.616;2023-02-14T15:10:59;24.90;;;22.10;;
58196;SDS011;43999;51.660;5.616;2023-02-14T15:13:40;24.95;;;20.77;;
58196;SDS011;43999;51.660;5.616;2023-02-14T15:16:17;25.88;;;23.08;;
58196;SDS011;43999;51.660;5.616;2023-02-14T15:22:34;25.57;;;22.97;;
58196;SDS011;43999;51.660;5.616;2023-02-14T15:25:32;25.02;;;22.52;;
58196;SDS011;43999;51.660;5.616;2023-02-14T15:28:03;24.65;;;21.50;;
58196;SDS011;43999;51.660;5.616;2023-02-14T15:30:33;24.17;;;21.67;;
58196;SDS011;43999;51.660;5.616;2023-02-14T15:33:04;24.02;;;19.42;;
58196;SDS011;43999;51.660;5.616;2023-02-14T15:35:34;23.38;;;20.70;;
58196;SDS011;43999;51.660;5.616;2023-02-14T15:38:38;25.60;;;22.83;;
58196;SDS011;43999;51.660;5.616;2023-02-14T15:41:11;24.52;;;21.88;;
58196;SDS011;43999;51.660;5.616;2023-02-14T15:44:16;24.58;;;21.98;;
58196;SDS011;43999;51.660;5.616;2023-02-14T15:47:11;24.80;;;22.38;;
58196;SDS011;43999;51.660;5.616;2023-02-14T15:49:55;26.13;;;22.42;;
58196;SDS011;43999;51.660;5.616;2023-02-14T15:52:27;25.58;;;22.88;;
58196;SDS011;43999;51.660;5.616;2023-02-14T15:55:10;24.85;;;22.20;;
58196;SDS011;43999;51.660;5.616;2023-02-14T15:58:02;25.85;;;21.13;;
58196;SDS011;43999;51.660;5.616;2023-02-14T16:00:53;29.85;;;23.25;;
58196;SDS011;43999;51.660;5.616;2023-02-14T16:03:33;28.00;;;24.98;;
58196;SDS011;43999;51.660;5.616;2023-02-14T16:06:28;24.92;;;22.33;;
58196;SDS011;43999;51.660;5.616;2023-02-14T16:09:24;26.05;;;23.50;;
58196;SDS011;43999;51.660;5.616;2023-02-14T16:11:56;26.75;;;23.50;;
58196;SDS011;43999;51.660;5.616;2023-02-14T16:14:34;28.00;;;23.38;;
58196;SDS011;43999;51.660;5.616;2023-02-14T16:17:14;24.27;;;21.63;;
58196;SDS011;43999;51.660;5.616;2023-02-14T16:20:19;27.30;;;23.85;;
58196;SDS011;43999;51.660;5.616;2023-02-14T16:23:19;27.02;;;24.17;;
58196;SDS011;43999;51.660;5.616;2023-02-14T16:26:14;25.48;;;22.83;;
58196;SDS011;43999;51.660;5.616;2023-02-14T16:28:43;27.70;;;24.70;;
58196;SDS011;43999;51.660;5.616;2023-02-14T16:31:14;27.40;;;23.45;;
58196;SDS011;43999;51.660;5.616;2023-02-14T16:34:16;30.00;;;23.95;;
58196;SDS011;43999;51.660;5.616;2023-02-14T16:36:56;26.83;;;22.35;;
58196;SDS011;43999;51.660;5.616;2023-02-14T16:39:38;27.42;;;23.33;;
58196;SDS011;43999;51.660;5.616;2023-02-14T16:42:08;28.33;;;22.65;;
58196;SDS011;43999;51.660;5.616;2023-02-14T16:44:45;26.02;;;22.15;;
58196;SDS011;43999;51.660;5.616;2023-02-14T16:47:25;25.70;;;21.55;;
58196;SDS011;43999;51.660;5.616;2023-02-14T16:49:57;26.88;;;22.10;;
58196;SDS011;43999;51.660;5.616;2023-02-14T16:52:26;25.38;;;22.23;;
58196;SDS011;43999;51.660;5.616;2023-02-14T16:54:59;31.08;;;25.15;;
58196;SDS011;43999;51.660;5.616;2023-02-14T16:57:28;27.92;;;23.92;;
58196;SDS011;43999;51.660;5.616;2023-02-14T17:00:10;27.05;;;23.52;;
58196;SDS011;43999;51.660;5.616;2023-02-14T17:02:46;29.33;;;23.85;;
58196;SDS011;43999;51.660;5.616;2023-02-14T17:05:37;31.40;;;24.52;;
58196;SDS011;43999;51.660;5.616;2023-02-14T17:08:06;32.55;;;25.17;;
58196;SDS011;43999;51.660;5.616;2023-02-14T17:10:42;29.20;;;25.02;;
58196;SDS011;43999;51.660;5.616;2023-02-14T17:13:18;35.45;;;27.38;;
58196;SDS011;43999;51.660;5.616;2023-02-14T17:15:57;31.88;;;24.95;;
58196;SDS011;43999;51.660;5.616;2023-02-14T17:18:26;30.85;;;25.20;;
58196;SDS011;43999;51.660;5.616;2023-02-14T17:21:02;33.13;;;26.43;;
58196;SDS011;43999;51.660;5.616;2023-02-14T17:23:33;33.00;;;26.35;;
58196;SDS011;43999;51.660;5.616;2023-02-14T17:26:03;34.38;;;27.05;;
58196;SDS011;43999;51.660;5.616;2023-02-14T17:28:32;33.08;;;28.05;;
58196;SDS011;43999;51.660;5.616;2023-02-14T17:30:59;35.13;;;27.63;;
58196;SDS011;43999;51.660;5.616;2023-02-14T17:33:31;36.22;;;29.00;;
58196;SDS011;43999;51.660;5.616;2023-02-14T17:36:05;35.30;;;28.30;;
58196;SDS011;43999;51.660;5.616;2023-02-14T17:38:38;33.72;;;28.58;;
58196;SDS011;43999;51.660;5.616;2023-02-14T17:44:03;31.35;;;27.95;;
58196;SDS011;43999;51.660;5.616;2023-02-14T17:46:32;33.97;;;27.83;;
58196;SDS011;43999;51.660;5.616;2023-02-14T17:49:02;34.00;;;26.13;;
58196;SDS011;43999;51.660;5.616;2023-02-14T17:51:33;35.88;;;30.15;;
58196;SDS011;43999;51.660;5.616;2023-02-14T17:54:06;36.63;;;28.92;;
58196;SDS011;43999;51.660;5.616;2023-02-14T17:56:42;40.60;;;29.23;;
58196;SDS011;43999;51.660;5.616;2023-02-14T17:59:14;35.38;;;30.13;;
58196;SDS011;43999;51.660;5.616;2023-02-14T18:01:43;39.22;;;32.40;;